createdAt,value
2022-12-31T00:01:27.094Z,88.98
2022-12-31T00:03:57.188Z,89.16
2022-12-31T00:06:33.180Z,88.88
2022-12-31T00:09:01.664Z,89.12
2022-12-31T00:11:29.883Z,89.04
2022-12-31T00:13:57.703Z,89.25
2022-12-31T00:16:25.994Z,89.13
2022-12-31T00:18:55.272Z,89.26
2022-12-31T00:21:22.879Z,89.06
2022-12-31T00:23:49.830Z,88.75
2022-12-31T00:26:22.625Z,88.57
2022-12-31T00:28:49.515Z,88.68
2022-12-31T00:31:19.357Z,88.56
2022-12-31T00:33:46.786Z,88.32
2022-12-31T00:36:16.440Z,88.23
2022-12-31T00:38:45.556Z,87.89
2022-12-31T00:41:13.908Z,87.79
2022-12-31T00:43:41.104Z,87.89
2022-12-31T00:46:09.428Z,87.70
2022-12-31T00:48:36.639Z,87.70
2022-12-31T00:51:05.937Z,88.08
2022-12-31T00:53:33.442Z,87.84
2022-12-31T00:56:06.931Z,87.92
2022-12-31T00:58:35.546Z,87.66
2022-12-31T01:01:16.464Z,88.04
2022-12-31T01:03:43.858Z,88.20
2022-12-31T01:06:11.161Z,87.90
2022-12-31T01:08:38.289Z,88.08
2022-12-31T01:11:22.448Z,87.97
2022-12-31T01:14:17.124Z,87.77
2022-12-31T01:16:47.678Z,87.87
2022-12-31T01:19:29.303Z,87.96
2022-12-31T01:21:57.246Z,87.74
2022-12-31T01:24:24.894Z,88.06
2022-12-31T01:26:52.021Z,88.08
2022-12-31T01:29:19.098Z,87.93
2022-12-31T01:31:46.058Z,87.81
2022-12-31T01:34:12.995Z,87.57
2022-12-31T01:36:40.188Z,87.71
2022-12-31T01:39:08.868Z,87.46
2022-12-31T01:41:39.298Z,87.51
2022-12-31T01:44:12.405Z,87.54
2022-12-31T01:46:47.352Z,87.38
2022-12-31T01:49:23.818Z,87.36
2022-12-31T01:52:05.196Z,87.45
2022-12-31T01:54:35.441Z,87.42
2022-12-31T01:57:03.712Z,87.48
2022-12-31T01:59:31.715Z,87.44
2022-12-31T02:01:59.993Z,87.48
2022-12-31T02:04:28.431Z,87.83
2022-12-31T02:07:00.126Z,87.52
2022-12-31T02:09:27.149Z,87.66
2022-12-31T02:11:54.116Z,87.44
2022-12-31T02:14:25.871Z,87.64
2022-12-31T02:17:08.435Z,87.73
2022-12-31T02:19:57.001Z,87.62
2022-12-31T02:22:42.715Z,87.52
2022-12-31T02:25:12.778Z,87.53
2022-12-31T02:27:42.616Z,87.69
2022-12-31T02:30:21.147Z,87.69
2022-12-31T02:33:02.641Z,87.83
2022-12-31T02:35:49.635Z,88.09
2022-12-31T02:38:39.327Z,88.25
2022-12-31T02:41:11.524Z,88.22
2022-12-31T02:43:46.799Z,88.45
2022-12-31T02:46:29.801Z,88.36
2022-12-31T02:49:10.974Z,88.26
2022-12-31T02:52:06.149Z,88.31
2022-12-31T02:54:51.526Z,88.35
2022-12-31T02:57:51.763Z,88.30
2022-12-31T03:00:37.688Z,88.23
2022-12-31T03:03:06.950Z,88.46
2022-12-31T03:05:39.447Z,88.35
2022-12-31T03:08:06.425Z,88.37
2022-12-31T03:10:33.515Z,88.51
2022-12-31T03:13:00.746Z,88.51
2022-12-31T03:15:30.809Z,88.49
2022-12-31T03:17:57.769Z,88.20
2022-12-31T03:20:48.454Z,88.06
2022-12-31T03:23:19.773Z,88.67
2022-12-31T03:25:47.174Z,88.71
2022-12-31T03:28:17.476Z,88.75
2022-12-31T03:30:48.101Z,89.37
2022-12-31T03:33:15.466Z,89.45
2022-12-31T03:35:44.292Z,89.50
2022-12-31T03:38:29.617Z,89.57
2022-12-31T03:40:56.624Z,89.54
2022-12-31T03:43:23.518Z,89.63
2022-12-31T03:45:53.167Z,89.83
2022-12-31T03:48:22.796Z,89.63
2022-12-31T03:50:50.662Z,89.86
2022-12-31T03:53:18.030Z,89.76
2022-12-31T03:55:45.054Z,90.12
2022-12-31T03:58:12.014Z,90.48
2022-12-31T04:00:39.211Z,90.27
2022-12-31T04:03:06.471Z,90.32
2022-12-31T04:05:33.798Z,90.39
2022-12-31T04:08:00.799Z,90.47
2022-12-31T04:10:27.837Z,90.35
2022-12-31T04:12:54.734Z,90.69
2022-12-31T04:15:21.945Z,90.19
2022-12-31T04:17:49.116Z,90.50
2022-12-31T04:20:16.837Z,90.43
2022-12-31T04:22:44.327Z,90.41
2022-12-31T04:25:11.799Z,90.55
2022-12-31T04:27:40.778Z,90.46
2022-12-31T04:30:09.899Z,90.25
2022-12-31T04:32:36.810Z,90.17
2022-12-31T04:35:04.157Z,90.15
2022-12-31T04:37:31.032Z,90.42
2022-12-31T04:40:03.551Z,90.78
2022-12-31T04:42:32.667Z,90.71
2022-12-31T04:44:59.495Z,91.13
2022-12-31T04:47:26.492Z,91.46
2022-12-31T04:49:53.423Z,91.40
2022-12-31T04:52:20.515Z,91.41
2022-12-31T04:54:47.412Z,91.82
2022-12-31T04:57:14.445Z,91.93
2022-12-31T04:59:41.335Z,92.23
2022-12-31T05:02:08.556Z,92.69
2022-12-31T05:04:35.633Z,92.53
2022-12-31T05:07:02.639Z,92.54
2022-12-31T05:09:29.851Z,92.43
2022-12-31T05:11:56.892Z,92.49
2022-12-31T05:14:23.723Z,92.76
2022-12-31T05:16:50.780Z,92.92
2022-12-31T05:19:17.687Z,92.86
2022-12-31T05:22:04.939Z,92.64
2022-12-31T05:24:31.870Z,92.53
2022-12-31T05:26:58.793Z,92.51
2022-12-31T05:29:26.251Z,92.54
2022-12-31T05:31:53.439Z,92.54
2022-12-31T05:34:20.749Z,92.54
2022-12-31T05:36:47.571Z,92.66
2022-12-31T05:39:14.559Z,92.69
2022-12-31T05:41:41.459Z,92.71
2022-12-31T05:44:08.328Z,93.14
2022-12-31T05:46:35.304Z,93.10
2022-12-31T05:49:02.224Z,93.15
2022-12-31T05:51:29.282Z,93.37
2022-12-31T05:53:56.110Z,93.22
2022-12-31T05:56:23.177Z,93.24
2022-12-31T05:58:50.049Z,93.19
2022-12-31T06:01:17.272Z,93.22
2022-12-31T06:03:44.617Z,93.44
2022-12-31T06:06:11.671Z,93.40
2022-12-31T06:08:38.603Z,93.34
2022-12-31T06:11:06.771Z,93.27
2022-12-31T06:13:33.682Z,93.48
2022-12-31T06:16:08.609Z,93.40
2022-12-31T06:18:35.755Z,93.18
2022-12-31T06:21:04.150Z,93.36
2022-12-31T06:23:31.658Z,93.47
2022-12-31T06:26:05.292Z,93.29
2022-12-31T06:28:32.587Z,93.38
2022-12-31T06:31:01.430Z,93.34
2022-12-31T06:33:29.207Z,93.18
2022-12-31T06:35:57.984Z,93.34
2022-12-31T06:38:26.227Z,93.40
2022-12-31T06:40:53.293Z,93.58
2022-12-31T06:43:21.084Z,93.54
2022-12-31T06:45:48.185Z,93.56
2022-12-31T06:48:16.411Z,93.42
2022-12-31T06:50:43.331Z,93.37
2022-12-31T06:53:12.083Z,93.54
2022-12-31T06:55:39.129Z,93.50
2022-12-31T06:58:06.591Z,93.34
2022-12-31T07:00:33.861Z,93.41
2022-12-31T07:03:16.097Z,93.59
2022-12-31T07:05:52.464Z,93.61
2022-12-31T07:08:19.479Z,93.45
2022-12-31T07:10:54.782Z,93.49
2022-12-31T07:13:33.870Z,93.52
2022-12-31T07:16:06.966Z,93.35
2022-12-31T07:19:07.967Z,93.28
2022-12-31T07:21:38.008Z,93.12
2022-12-31T07:24:09.837Z,92.80
2022-12-31T07:26:51.147Z,92.73
2022-12-31T07:29:56.694Z,92.65
2022-12-31T07:33:08.157Z,92.52
2022-12-31T07:35:56.637Z,92.22
2022-12-31T07:38:32.746Z,91.79
2022-12-31T07:41:24.473Z,91.65
2022-12-31T07:44:11.718Z,91.26
2022-12-31T07:46:48.698Z,90.99
2022-12-31T07:49:16.062Z,90.82
2022-12-31T07:51:43.201Z,90.55
2022-12-31T07:54:14.234Z,90.33
2022-12-31T07:56:43.043Z,90.09
2022-12-31T07:59:37.935Z,89.71
2022-12-31T08:02:04.883Z,89.13
2022-12-31T08:04:52.470Z,88.87
2022-12-31T08:07:26.810Z,88.85
2022-12-31T08:10:17.963Z,88.61
2022-12-31T08:12:49.545Z,88.44
2022-12-31T08:15:19.229Z,88.28
2022-12-31T08:17:46.355Z,87.75
2022-12-31T08:20:19.401Z,87.69
2022-12-31T08:23:11.969Z,87.31
2022-12-31T08:26:06.372Z,87.03
2022-12-31T08:29:02.709Z,86.77
2022-12-31T08:31:55.749Z,86.80
2022-12-31T08:34:49.797Z,86.60
2022-12-31T08:37:37.002Z,85.75
2022-12-31T08:40:36.416Z,85.42
2022-12-31T08:43:19.984Z,85.02
2022-12-31T08:45:49.909Z,84.94
2022-12-31T08:48:31.078Z,84.11
2022-12-31T08:50:58.477Z,83.79
2022-12-31T08:53:25.989Z,83.48
2022-12-31T08:56:01.672Z,82.24
2022-12-31T08:58:59.720Z,81.22
2022-12-31T09:01:33.974Z,80.99
2022-12-31T09:04:19.575Z,80.48
2022-12-31T09:07:02.287Z,79.50
2022-12-31T09:09:50.359Z,78.73
2022-12-31T09:12:35.712Z,78.06
2022-12-31T09:15:14.948Z,78.46
2022-12-31T09:17:46.432Z,78.00
2022-12-31T09:20:20.773Z,77.13
2022-12-31T09:22:48.583Z,76.95
2022-12-31T09:25:18.106Z,76.16
2022-12-31T09:28:08.611Z,76.22
2022-12-31T09:30:50.779Z,76.10
2022-12-31T09:33:48.804Z,75.86
2022-12-31T09:36:32.180Z,75.92
2022-12-31T09:39:14.899Z,75.30
2022-12-31T09:42:01.765Z,74.97
2022-12-31T09:44:28.860Z,74.78
2022-12-31T09:47:17.532Z,74.58
2022-12-31T09:50:33.510Z,73.67
2022-12-31T09:53:19.178Z,73.86
2022-12-31T09:55:56.364Z,73.52
2022-12-31T09:59:04.588Z,73.50
2022-12-31T10:01:57.405Z,73.59
2022-12-31T10:05:03.146Z,73.34
2022-12-31T10:07:54.374Z,73.39
2022-12-31T10:10:56.064Z,72.64
2022-12-31T10:13:45.989Z,72.37
2022-12-31T10:16:31.350Z,72.42
2022-12-31T10:19:24.541Z,72.18
2022-12-31T10:22:06.691Z,71.83
2022-12-31T10:24:50.715Z,71.82
2022-12-31T10:27:38.217Z,71.54
2022-12-31T10:30:19.057Z,71.29
2022-12-31T10:33:15.909Z,70.89
2022-12-31T10:35:45.925Z,70.76
2022-12-31T10:38:18.979Z,70.51
2022-12-31T10:41:23.148Z,70.26
2022-12-31T10:44:22.978Z,69.86
2022-12-31T10:46:58.883Z,69.39
2022-12-31T10:49:41.375Z,68.74
2022-12-31T10:52:38.184Z,68.98
2022-12-31T10:55:26.881Z,68.71
2022-12-31T10:58:27.777Z,68.20
2022-12-31T11:01:39.488Z,67.64
2022-12-31T11:04:18.917Z,66.99
2022-12-31T11:07:11.581Z,66.68
2022-12-31T11:09:41.473Z,66.49
2022-12-31T11:12:11.604Z,66.03
2022-12-31T11:14:38.608Z,65.98
2022-12-31T11:17:49.164Z,65.85
2022-12-31T11:20:25.017Z,65.62
2022-12-31T11:22:52.018Z,65.93
2022-12-31T11:26:14.628Z,65.70
2022-12-31T11:28:48.976Z,65.19
2022-12-31T11:31:48.797Z,65.27
2022-12-31T11:34:37.624Z,65.09
2022-12-31T11:37:29.302Z,65.10
2022-12-31T11:40:29.955Z,64.61
2022-12-31T11:43:10.940Z,64.75
2022-12-31T11:45:59.558Z,63.92
2022-12-31T11:48:36.947Z,64.11
2022-12-31T11:51:16.092Z,63.96
2022-12-31T11:54:04.163Z,64.56
2022-12-31T11:56:57.333Z,64.57
2022-12-31T11:59:24.615Z,63.44
2022-12-31T12:02:27.929Z,63.72
2022-12-31T12:05:02.677Z,63.57
2022-12-31T12:07:35.573Z,63.47
2022-12-31T12:10:07.420Z,63.14
2022-12-31T12:12:41.449Z,62.33
2022-12-31T12:15:11.527Z,62.37
2022-12-31T12:17:39.334Z,62.78
2022-12-31T12:20:29.428Z,61.89
2022-12-31T12:22:58.724Z,61.58
2022-12-31T12:25:36.088Z,61.46
2022-12-31T12:28:19.963Z,60.95
2022-12-31T12:30:54.820Z,60.78
2022-12-31T12:33:21.960Z,60.62
2022-12-31T12:35:48.932Z,60.98
2022-12-31T12:38:23.628Z,60.78
2022-12-31T12:40:59.676Z,60.91
2022-12-31T12:43:32.684Z,60.73
2022-12-31T12:46:02.532Z,60.75
2022-12-31T12:48:39.981Z,60.66
2022-12-31T12:51:31.236Z,60.49
2022-12-31T12:54:14.119Z,60.43
2022-12-31T12:56:52.159Z,60.21
2022-12-31T12:59:43.640Z,60.47
2022-12-31T13:02:19.972Z,60.50
2022-12-31T13:05:03.366Z,60.42
2022-12-31T13:07:53.518Z,60.48
2022-12-31T13:10:29.405Z,60.17
2022-12-31T13:13:24.551Z,60.00
2022-12-31T13:16:04.391Z,59.68
2022-12-31T13:18:50.144Z,59.41
2022-12-31T13:21:43.592Z,59.93
2022-12-31T13:24:39.617Z,59.64
2022-12-31T13:27:33.627Z,59.94
2022-12-31T13:30:03.423Z,60.07
2022-12-31T13:32:45.009Z,60.15
2022-12-31T13:35:33.698Z,60.12
2022-12-31T13:38:06.825Z,59.57
2022-12-31T13:40:52.584Z,59.67
2022-12-31T13:43:57.124Z,59.64
2022-12-31T13:46:42.812Z,59.88
2022-12-31T13:49:24.736Z,59.99
2022-12-31T13:52:01.348Z,60.27
2022-12-31T13:54:42.012Z,60.24
2022-12-31T13:57:36.547Z,60.61
2022-12-31T14:00:10.678Z,60.40
2022-12-31T14:02:48.015Z,60.43
2022-12-31T14:05:23.077Z,60.64
2022-12-31T14:07:59.498Z,61.03
2022-12-31T14:11:00.746Z,61.01
2022-12-31T14:13:40.207Z,60.87
2022-12-31T14:16:07.142Z,60.94
2022-12-31T14:19:05.250Z,61.83
2022-12-31T14:21:53.573Z,62.31
2022-12-31T14:24:44.765Z,62.31
2022-12-31T14:27:21.043Z,62.82
2022-12-31T14:30:01.729Z,62.88
2022-12-31T14:32:55.147Z,62.97
2022-12-31T14:35:48.420Z,63.39
2022-12-31T14:38:42.192Z,63.70
2022-12-31T14:41:11.300Z,63.98
2022-12-31T14:43:46.299Z,64.19
2022-12-31T14:46:29.888Z,64.61
2022-12-31T14:49:00.505Z,64.81
2022-12-31T14:51:31.007Z,65.30
2022-12-31T14:53:58.879Z,65.57
2022-12-31T14:56:26.054Z,65.77
2022-12-31T14:59:01.501Z,69.96
2022-12-31T15:01:29.575Z,68.09
2022-12-31T15:03:58.215Z,67.54
2022-12-31T15:06:48.004Z,67.73
2022-12-31T15:09:40.833Z,67.89
2022-12-31T15:12:33.467Z,68.07
2022-12-31T15:15:25.230Z,68.42
2022-12-31T15:17:54.949Z,68.58
2022-12-31T15:20:24.762Z,68.72
2022-12-31T15:22:52.928Z,69.11
2022-12-31T15:25:25.555Z,69.37
2022-12-31T15:27:53.007Z,69.48
2022-12-31T15:30:44.438Z,69.96
2022-12-31T15:33:32.948Z,73.46
2022-12-31T15:36:18.143Z,72.44
2022-12-31T15:38:46.211Z,71.85
2022-12-31T15:41:16.960Z,72.08
2022-12-31T15:43:50.701Z,72.05
2022-12-31T15:46:22.754Z,72.11
2022-12-31T15:49:01.995Z,72.46
2022-12-31T15:51:45.383Z,72.80
2022-12-31T15:54:24.353Z,73.02
2022-12-31T15:56:54.545Z,73.21
2022-12-31T15:59:23.448Z,73.43
2022-12-31T16:01:50.700Z,73.56
2022-12-31T16:04:23.870Z,74.08
2022-12-31T16:06:52.411Z,74.35
2022-12-31T16:09:34.233Z,74.63
2022-12-31T16:12:03.806Z,74.68
2022-12-31T16:14:40.503Z,75.11
2022-12-31T16:17:21.801Z,75.37
2022-12-31T16:19:48.611Z,75.52
2022-12-31T16:22:39.802Z,75.75
2022-12-31T16:25:32.645Z,75.99
2022-12-31T16:27:55.773Z,76.03
2022-12-31T16:30:32.291Z,76.21
2022-12-31T16:33:02.462Z,75.99
2022-12-31T16:35:32.150Z,75.92
2022-12-31T16:38:03.736Z,76.10
2022-12-31T16:40:31.061Z,76.23
2022-12-31T16:42:58.072Z,76.53
2022-12-31T16:45:36.459Z,76.78
2022-12-31T16:48:17.349Z,77.08
2022-12-31T16:51:03.487Z,77.23
2022-12-31T16:53:34.595Z,77.42
2022-12-31T16:56:05.648Z,77.55
2022-12-31T16:58:36.397Z,77.82
2022-12-31T17:01:19.449Z,78.21
2022-12-31T17:03:52.053Z,78.40
2022-12-31T17:06:20.845Z,78.72
2022-12-31T17:09:15.731Z,78.69
2022-12-31T17:11:56.103Z,78.86
2022-12-31T17:14:26.927Z,79.06
2022-12-31T17:17:24.898Z,79.17
2022-12-31T17:19:57.837Z,81.36
2022-12-31T17:22:35.838Z,80.70
2022-12-31T17:25:25.733Z,80.08
2022-12-31T17:27:56.472Z,79.79
2022-12-31T17:30:38.042Z,79.39
2022-12-31T17:33:08.269Z,79.34
2022-12-31T17:35:37.662Z,79.34
2022-12-31T17:38:23.150Z,79.29
2022-12-31T17:40:54.437Z,79.28
2022-12-31T17:43:23.806Z,80.00
2022-12-31T17:45:52.957Z,79.92
2022-12-31T17:48:23.117Z,80.00
2022-12-31T17:50:52.370Z,80.28
2022-12-31T17:53:19.840Z,80.25
2022-12-31T17:55:56.995Z,80.37
2022-12-31T17:58:38.455Z,80.56
2022-12-31T18:01:07.825Z,80.67
2022-12-31T18:03:35.187Z,81.06
2022-12-31T18:06:02.488Z,81.03
2022-12-31T18:08:29.473Z,80.85
2022-12-31T18:10:56.725Z,81.00
2022-12-31T18:13:25.629Z,81.14
2022-12-31T18:15:53.270Z,80.98
2022-12-31T18:18:28.894Z,80.99
2022-12-31T18:20:59.239Z,80.98
2022-12-31T18:23:35.505Z,80.93
2022-12-31T18:26:02.368Z,80.78
2022-12-31T18:28:49.233Z,80.58
2022-12-31T18:31:18.044Z,80.80
2022-12-31T18:33:46.937Z,80.73
2022-12-31T18:36:16.946Z,80.87
2022-12-31T18:38:44.053Z,80.82
2022-12-31T18:41:24.169Z,80.84
2022-12-31T18:43:51.255Z,80.82
2022-12-31T18:46:20.621Z,80.92
2022-12-31T18:48:48.189Z,80.71
2022-12-31T18:51:18.297Z,81.01
2022-12-31T18:53:45.753Z,80.96
2022-12-31T18:56:15.356Z,81.18
2022-12-31T18:58:43.333Z,81.70
2022-12-31T19:01:37.772Z,81.79
2022-12-31T19:04:11.213Z,81.79
2022-12-31T19:06:38.299Z,81.99
2022-12-31T19:09:13.288Z,81.86
2022-12-31T19:11:52.927Z,81.85
2022-12-31T19:14:24.157Z,81.73
2022-12-31T19:16:53.230Z,81.92
2022-12-31T19:19:21.045Z,81.86
2022-12-31T19:21:48.224Z,82.08
2022-12-31T19:24:16.794Z,82.17
2022-12-31T19:26:44.135Z,82.39
2022-12-31T19:29:17.799Z,82.60
2022-12-31T19:31:45.090Z,82.63
2022-12-31T19:34:12.296Z,82.77
2022-12-31T19:36:44.084Z,82.77
2022-12-31T19:39:20.556Z,82.98
2022-12-31T19:41:54.695Z,83.10
2022-12-31T19:44:26.581Z,83.17
2022-12-31T19:46:53.841Z,83.31
2022-12-31T19:49:20.825Z,83.50
2022-12-31T19:51:48.183Z,83.49
2022-12-31T19:54:15.154Z,85.22
2022-12-31T19:56:42.063Z,84.48
2022-12-31T19:59:10.931Z,84.06
2022-12-31T20:01:38.397Z,83.83
2022-12-31T20:04:05.620Z,84.25
2022-12-31T20:06:32.955Z,84.01
2022-12-31T20:09:00.131Z,83.92
2022-12-31T20:11:27.881Z,83.92
2022-12-31T20:13:55.041Z,83.98
2022-12-31T20:16:24.626Z,83.89
2022-12-31T20:18:52.266Z,84.04
2022-12-31T20:21:22.847Z,84.23
2022-12-31T20:23:51.287Z,84.15
2022-12-31T20:26:19.126Z,84.45
2022-12-31T20:28:46.794Z,84.87
2022-12-31T20:31:16.711Z,84.75
2022-12-31T20:33:44.608Z,85.02
2022-12-31T20:36:14.564Z,85.28
2022-12-31T20:38:41.598Z,85.39
2022-12-31T20:41:14.156Z,85.48
2022-12-31T20:43:41.620Z,85.76
2022-12-31T20:46:15.443Z,85.99
2022-12-31T20:48:44.356Z,85.82
2022-12-31T20:51:13.068Z,85.74
2022-12-31T20:53:45.052Z,86.16
2022-12-31T20:56:11.955Z,86.05
2022-12-31T20:58:38.888Z,86.38
2022-12-31T21:01:08.225Z,86.44
2022-12-31T21:06:28.765Z,86.85
2022-12-31T21:08:57.420Z,87.09
2022-12-31T21:11:43.524Z,87.15
2022-12-31T21:14:10.489Z,87.34
2022-12-31T21:16:37.550Z,87.23
2022-12-31T21:19:05.520Z,87.24
2022-12-31T21:21:32.785Z,87.21
2022-12-31T21:23:59.719Z,87.06
2022-12-31T21:26:26.885Z,87.18
2022-12-31T21:28:54.140Z,87.19
2022-12-31T21:31:21.314Z,87.33
2022-12-31T21:33:48.618Z,87.32
2022-12-31T21:36:16.281Z,87.54
2022-12-31T21:38:44.523Z,87.39
2022-12-31T21:41:34.151Z,87.60
2022-12-31T21:44:02.932Z,87.63
2022-12-31T21:46:30.179Z,87.67
2022-12-31T21:48:58.529Z,87.78
2022-12-31T21:51:26.046Z,88.79
2022-12-31T21:53:53.185Z,88.56
2022-12-31T21:56:21.373Z,88.24
2022-12-31T21:59:16.946Z,88.26
2022-12-31T22:02:03.188Z,88.02
2022-12-31T22:07:17.479Z,88.59
2022-12-31T22:09:44.550Z,88.76
2022-12-31T22:12:11.544Z,88.90
2022-12-31T22:14:38.457Z,89.02
2022-12-31T22:17:05.826Z,89.34
2022-12-31T22:19:43.524Z,89.42
2022-12-31T22:22:19.998Z,89.62
2022-12-31T22:24:46.915Z,89.69
2022-12-31T22:27:29.604Z,89.58
2022-12-31T22:29:56.702Z,89.56
2022-12-31T22:32:23.577Z,90.02
2022-12-31T22:34:50.422Z,90.02
2022-12-31T22:37:54.454Z,90.09
2022-12-31T22:40:04.845Z,90.09
2022-12-31T22:42:31.992Z,90.15
2022-12-31T22:44:58.874Z,90.19
2022-12-31T22:47:25.885Z,90.26
2022-12-31T22:49:52.807Z,90.13
2022-12-31T22:52:19.721Z,90.11
2022-12-31T22:54:46.680Z,90.20
2022-12-31T22:57:19.769Z,90.26
2022-12-31T22:59:47.275Z,90.40
2022-12-31T23:02:14.206Z,90.66
2022-12-31T23:04:41.401Z,90.95
2022-12-31T23:07:08.781Z,90.83
2022-12-31T23:09:54.261Z,92.89
2022-12-31T23:12:21.233Z,93.37
2022-12-31T23:15:06.680Z,93.02
2022-12-31T23:17:52.010Z,92.76
2022-12-31T23:20:41.047Z,92.43
2022-12-31T23:23:11.973Z,92.42
2022-12-31T23:25:44.158Z,92.40
2022-12-31T23:28:22.057Z,92.59
2022-12-31T23:30:54.085Z,92.59
2022-12-31T23:33:24.069Z,92.69
2022-12-31T23:36:01.088Z,92.55
2022-12-31T23:38:28.025Z,92.64
2022-12-31T23:40:54.851Z,92.53
2022-12-31T23:43:22.493Z,92.39
2022-12-31T23:45:51.254Z,92.13
2022-12-31T23:48:18.324Z,92.16
2022-12-31T23:50:50.807Z,92.26
2022-12-31T23:53:19.844Z,92.32
2022-12-31T23:55:46.691Z,92.26
2022-12-31T23:58:13.568Z,92.23
